メインページ
METAR-TAF:

METAR-TAF

空港 :

テュルクメナバート, トルクメニスタン

緯度: 39-05-00N, 経度: 063-36-48E, 海抜: 192m

現時点の気象観測

当レポートは1時間0分前の13:00(UTC)に作成
北西の風 14kt
気温 33°C
湿度 13%
気圧 1010 hPa
視程10km以上
1,500メートル以下は雲なし、積乱雲なし

METAR: UTAV 231300Z 32014KT CAVOK 33/01 Q1010 R31/CLRD70 NOSIG

時間: 19:00 (14:00 UTC)

予報

当レポートは3時間30分前の10:30(UTC)に作成
予報は23日の 12時(UTC)から 24日の 12時(UTC)まで有効
北東の風 14kt
視程: 6000m
高度3000ftの千切れ雲あり
高度5000ftの雲は散在している, 積乱雲.
23日の 12時(UTC)から 23日の 18時(UTC)まで一時的に
北西の風 16kt、最大26ktの突風を伴う
視程: 3000m
低いドリフト塵
確率 30% :
23日の 12時(UTC)から 23日の 18時(UTC)まで一時的に
変向風 30kt
激しい雷雨, 小雨,

TAF: UTAV 231030Z 2312/2412 04014KT 6000 BKN030 SCT050CB TEMPO 2312/2318 32016G26KT 3000 DRDU PROB30 TEMPO 2312/2318 VRB30KT -TSRA

4,000以上の空港の気象観測と天気予報(METAR報とTAF報)

利用可能な観測所は地図上に黄色い丸と赤い丸で示す。

丸の上にカーソルを重ねると観測所名を参照できる。

次にクリックすると気象観測と天気予報を参照できる。

マップの切り替え:黒色「×」印の緑ボタンをクリックして拡大、「-」印の緑ボタンをクリックして縮小、緑色の三角印をクリックして隣りの地図に切り替え


METAR-TAF: